createdAt,value
2018-02-23T00:01:04.828Z,101475
2018-02-23T00:06:08.692Z,101475
2018-02-23T00:11:11.788Z,101476
2018-02-23T00:16:14.886Z,101470
2018-02-23T00:21:19.331Z,101467
2018-02-23T00:26:23.205Z,101471
2018-02-23T00:31:26.712Z,101473
2018-02-23T00:36:29.811Z,101463
2018-02-23T00:41:33.741Z,101464
2018-02-23T00:46:37.626Z,101467
2018-02-23T00:51:40.719Z,101465
2018-02-23T00:56:43.891Z,101466
2018-02-23T01:01:47.747Z,101469
2018-02-23T01:06:50.832Z,101473
2018-02-23T01:11:53.924Z,101464
2018-02-23T01:16:57.776Z,101460
2018-02-23T01:22:02.235Z,101457
2018-02-23T01:27:05.347Z,101452
2018-02-23T01:32:10.076Z,101456
2018-02-23T01:37:13.179Z,101456
2018-02-23T01:42:17.788Z,101455
2018-02-23T01:47:21.655Z,101452
2018-02-23T01:52:24.765Z,101445
2018-02-23T01:57:29.000Z,101442
2018-02-23T02:02:32.502Z,101439
2018-02-23T02:07:36.940Z,101435
2018-02-23T02:12:40.810Z,101429
2018-02-23T02:17:45.264Z,101426
2018-02-23T02:22:49.709Z,101415
2018-02-23T02:27:54.156Z,101414
2018-02-23T02:32:58.397Z,101415
2018-02-23T02:38:02.832Z,101415
2018-02-23T02:43:07.296Z,101422
2018-02-23T02:48:10.401Z,101419
2018-02-23T02:58:18.989Z,101415
2018-02-23T03:03:23.415Z,101408
2018-02-23T03:08:27.858Z,101410
2018-02-23T03:13:32.292Z,101418
2018-02-23T03:18:36.885Z,101413
2018-02-23T03:23:41.105Z,101417
2018-02-23T03:28:44.192Z,101415
2018-02-23T03:33:49.888Z,101417
2018-02-23T03:38:54.975Z,101414
2018-02-23T03:43:58.065Z,101423
2018-02-23T03:49:01.556Z,101418
2018-02-23T03:54:05.045Z,101422
2018-02-23T03:59:08.163Z,101421
2018-02-23T04:04:11.252Z,101431
2018-02-23T04:09:15.699Z,101426
2018-02-23T04:14:19.941Z,101427
2018-02-23T04:19:27.881Z,101419
2018-02-23T04:24:32.315Z,101413
2018-02-23T04:29:36.766Z,101409
2018-02-23T04:34:41.225Z,101417
2018-02-23T04:39:44.726Z,101432
2018-02-23T04:44:47.824Z,101433
2018-02-23T04:49:51.300Z,101434
2018-02-23T04:54:56.280Z,101436
2018-02-23T05:00:00.880Z,101432
2018-02-23T05:05:05.128Z,101435
2018-02-23T05:10:08.985Z,101435
2018-02-23T05:15:12.085Z,101439
2018-02-23T05:20:15.178Z,101436
2018-02-23T05:25:18.277Z,101427
2018-02-23T05:30:22.743Z,101435
2018-02-23T05:35:25.834Z,101436
2018-02-23T05:40:28.924Z,101435
2018-02-23T05:45:33.372Z,101440
2018-02-23T05:50:37.822Z,101441
2018-02-23T05:55:42.063Z,101447
2018-02-23T06:00:46.504Z,101452
2018-02-23T06:05:51.117Z,101455
2018-02-23T06:10:55.567Z,101463
2018-02-23T06:16:05.827Z,101460
2018-02-23T06:21:10.442Z,101464
2018-02-23T06:26:14.324Z,101473
2018-02-23T06:31:17.449Z,101468
2018-02-23T06:36:21.883Z,101474
2018-02-23T06:41:24.980Z,101476
2018-02-23T06:46:28.848Z,101479
2018-02-23T06:51:32.707Z,101493
2018-02-23T06:56:36.556Z,101486
2018-02-23T07:01:41.034Z,101482
2018-02-23T07:06:45.680Z,101482
2018-02-23T07:11:50.119Z,101488
2018-02-23T07:16:54.340Z,101489
2018-02-23T07:21:57.428Z,101486
2018-02-23T07:27:00.511Z,101484
2018-02-23T07:32:04.963Z,101493
2018-02-23T07:37:10.347Z,101494
2018-02-23T07:42:13.836Z,101498
2018-02-23T07:47:17.676Z,101493
2018-02-23T07:52:21.896Z,101484
2018-02-23T07:57:25.752Z,101492
2018-02-23T08:02:28.824Z,101491
2018-02-23T08:07:32.536Z,101492
2018-02-23T08:12:36.968Z,101502
2018-02-23T08:17:40.807Z,101518
2018-02-23T08:22:43.875Z,101512
2018-02-23T08:27:48.312Z,101506
2018-02-23T08:32:52.520Z,101508
2018-02-23T08:37:55.999Z,101519
2018-02-23T08:42:59.072Z,101506
2018-02-23T08:48:02.139Z,101505
2018-02-23T08:53:05.227Z,101506
2018-02-23T08:58:16.586Z,101506
2018-02-23T09:03:20.777Z,101507
2018-02-23T09:08:23.860Z,101509
2018-02-23T09:13:26.931Z,101509
2018-02-23T09:18:30.410Z,101503
2018-02-23T09:23:34.254Z,101501
2018-02-23T09:28:38.464Z,101504
2018-02-23T09:33:54.683Z,101501
2018-02-23T09:38:57.764Z,101504
2018-02-23T09:44:00.872Z,101501
2018-02-23T09:49:03.957Z,101503
2018-02-23T09:54:07.100Z,101493
2018-02-23T09:59:10.175Z,101495
2018-02-23T10:04:13.279Z,101523
2018-02-23T10:09:17.147Z,101508
2018-02-23T10:14:20.999Z,101495
2018-02-23T10:19:25.216Z,101503
2018-02-23T10:24:28.287Z,101480
2018-02-23T10:29:31.381Z,101489
2018-02-23T10:34:34.452Z,101480
2018-02-23T10:39:38.295Z,101484
2018-02-23T10:44:42.519Z,101480
2018-02-23T10:49:45.588Z,101457
2018-02-23T10:54:48.675Z,101451
2018-02-23T10:59:52.563Z,101452
2018-02-23T11:04:56.396Z,101448
2018-02-23T11:09:59.876Z,101429
2018-02-23T11:15:04.095Z,101435
2018-02-23T11:20:08.311Z,101440
2018-02-23T11:25:11.393Z,101423
2018-02-23T11:30:14.483Z,101417
2018-02-23T11:35:17.922Z,101412
2018-02-23T11:40:21.766Z,101408
2018-02-23T11:45:24.842Z,101412
2018-02-23T11:50:28.184Z,101411
2018-02-23T11:55:31.280Z,101400
2018-02-23T12:00:34.349Z,101399
2018-02-23T12:05:38.780Z,101403
2018-02-23T12:10:43.013Z,101396
2018-02-23T12:15:46.127Z,101385
2018-02-23T12:20:49.972Z,101384
2018-02-23T12:25:53.052Z,101383
2018-02-23T12:30:57.491Z,101374
2018-02-23T12:36:00.967Z,101373
2018-02-23T12:41:04.810Z,101352
2018-02-23T12:46:07.888Z,101351
2018-02-23T12:51:11.029Z,101346
2018-02-23T12:56:14.126Z,101339
2018-02-23T13:01:17.204Z,101337
2018-02-23T13:06:21.686Z,101341
2018-02-23T13:11:24.782Z,101333
2018-02-23T13:16:29.215Z,101320
2018-02-23T13:21:33.815Z,101322
2018-02-23T13:26:36.915Z,101313
2018-02-23T13:31:41.151Z,101321
2018-02-23T13:36:44.627Z,101311
2018-02-23T13:41:48.103Z,101309
2018-02-23T13:46:51.213Z,101297
2018-02-23T13:51:55.070Z,101289
2018-02-23T13:56:59.398Z,101288
2018-02-23T14:02:03.257Z,101277
2018-02-23T14:07:13.587Z,101276
2018-02-23T14:12:18.011Z,101275
2018-02-23T14:17:22.263Z,101276
2018-02-23T14:22:25.351Z,101264
2018-02-23T14:27:29.199Z,101272
2018-02-23T14:32:32.644Z,101274
2018-02-23T14:37:37.091Z,101254
2018-02-23T14:42:41.326Z,101256
2018-02-23T14:47:45.911Z,101258
2018-02-23T14:52:50.408Z,101254
2018-02-23T14:57:54.278Z,101251
2018-02-23T15:02:57.376Z,101235
2018-02-23T15:08:01.237Z,101232
2018-02-23T15:13:05.100Z,101231
2018-02-23T15:18:09.546Z,101230
2018-02-23T15:23:14.554Z,101236
2018-02-23T15:28:18.791Z,101243
2018-02-23T15:33:22.680Z,101242
2018-02-23T15:38:25.792Z,101236
2018-02-23T15:43:29.632Z,101243
2018-02-23T15:48:39.154Z,101247
2018-02-23T15:53:43.735Z,101255
2018-02-23T16:03:56.309Z,101256
2018-02-23T16:09:00.520Z,101258
2018-02-23T16:14:03.599Z,101267
2018-02-23T16:19:06.677Z,101272
2018-02-23T16:24:10.913Z,101264
2018-02-23T16:29:15.384Z,101278
2018-02-23T16:34:19.809Z,101275
2018-02-23T16:39:22.896Z,101281
2018-02-23T16:44:26.748Z,101283
2018-02-23T16:49:29.839Z,101290
2018-02-23T16:54:34.287Z,101291
2018-02-23T16:59:38.887Z,101291
2018-02-23T17:04:42.747Z,101292
2018-02-23T17:09:45.869Z,101297
2018-02-23T17:14:48.960Z,101298
2018-02-23T17:19:52.811Z,101309
2018-02-23T17:24:56.311Z,101314
2018-02-23T17:30:00.899Z,101323
2018-02-23T17:35:03.981Z,101324
2018-02-23T17:40:07.072Z,101319
2018-02-23T17:45:11.507Z,101329
2018-02-23T17:50:14.641Z,101328
2018-02-23T17:55:17.769Z,101331
2018-02-23T18:00:21.299Z,101339
2018-02-23T18:05:25.743Z,101336
2018-02-23T18:10:29.217Z,101339
2018-02-23T18:15:32.300Z,101325
2018-02-23T18:20:35.380Z,101333
2018-02-23T18:25:39.345Z,101333
2018-02-23T18:30:43.569Z,101335
2018-02-23T18:35:46.652Z,101335
2018-02-23T18:40:50.867Z,101341
2018-02-23T18:45:53.962Z,101356
2018-02-23T18:50:58.395Z,101356
2018-02-23T18:56:01.483Z,101335
2018-02-23T19:01:04.597Z,101335
2018-02-23T19:06:07.652Z,101335
2018-02-23T19:11:11.527Z,101338
2018-02-23T19:16:15.036Z,101345
2018-02-23T19:21:18.132Z,101345
2018-02-23T19:26:22.588Z,101352
2018-02-23T19:31:25.711Z,101353
2018-02-23T19:36:29.578Z,101349
2018-02-23T19:41:34.003Z,101338
2018-02-23T19:46:37.847Z,101344
2018-02-23T19:51:41.698Z,101357
2018-02-23T19:56:46.291Z,101363
2018-02-23T20:01:49.396Z,101354
2018-02-23T20:06:53.606Z,101357
2018-02-23T20:11:56.713Z,101366
2018-02-23T20:17:00.563Z,101374
2018-02-23T20:22:04.779Z,101386
2018-02-23T20:27:07.867Z,101388
2018-02-23T20:32:11.709Z,101390
2018-02-23T20:37:14.803Z,101405
2018-02-23T20:42:18.670Z,101403
2018-02-23T20:47:22.164Z,101399
2018-02-23T20:52:25.260Z,101413
2018-02-23T20:57:28.355Z,101417
2018-02-23T21:02:31.844Z,101418
2018-02-23T21:07:35.679Z,101417
2018-02-23T21:12:38.761Z,101421
2018-02-23T21:17:43.009Z,101425
2018-02-23T21:22:46.835Z,101417
2018-02-23T21:27:49.932Z,101409
2018-02-23T21:32:54.383Z,101414
2018-02-23T21:37:57.863Z,101419
2018-02-23T21:43:02.299Z,101410
2018-02-23T21:48:05.415Z,101404
2018-02-23T21:53:08.496Z,101397
2018-02-23T21:58:12.742Z,101391
2018-02-23T22:03:16.968Z,101377
2018-02-23T22:08:20.059Z,101383
2018-02-23T22:13:24.498Z,101396
2018-02-23T22:18:28.938Z,101403
2018-02-23T22:23:32.436Z,101396
2018-02-23T22:28:36.701Z,101402
2018-02-23T22:33:41.542Z,101412
2018-02-23T22:38:46.165Z,101420
2018-02-23T22:43:49.260Z,101428
2018-02-23T22:48:54.314Z,101437
2018-02-23T22:53:58.166Z,101442
2018-02-23T22:59:02.388Z,101440
2018-02-23T23:04:06.847Z,101441
2018-02-23T23:09:10.363Z,101444
2018-02-23T23:14:13.462Z,101449
2018-02-23T23:19:17.894Z,101439
2018-02-23T23:24:22.132Z,101438
2018-02-23T23:29:25.227Z,101428
2018-02-23T23:34:29.694Z,101439
2018-02-23T23:39:33.549Z,101441
2018-02-23T23:44:38.012Z,101456
2018-02-23T23:49:41.513Z,101450
2018-02-23T23:54:46.173Z,101455
2018-02-23T23:59:49.660Z,101456
